createdAt,value
2023-08-27T00:01:05.352Z,0
2023-08-27T00:04:06.362Z,0
2023-08-27T00:07:07.334Z,0
2023-08-27T00:10:08.408Z,0
2023-08-27T00:13:09.431Z,0
2023-08-27T00:19:11.468Z,0
2023-08-27T00:22:12.444Z,0
2023-08-27T00:26:58.484Z,0
2023-08-27T00:28:14.554Z,0
2023-08-27T00:31:15.534Z,0
2023-08-27T00:34:16.553Z,0
2023-08-27T00:37:17.626Z,0
2023-08-27T00:40:18.643Z,0
2023-08-27T00:43:19.616Z,0
2023-08-27T00:46:20.703Z,0
2023-08-27T00:49:21.675Z,0
2023-08-27T00:52:22.678Z,0
2023-08-27T00:55:23.750Z,0
2023-08-27T00:57:08.777Z,0
2023-08-27T00:58:24.794Z,0
2023-08-27T01:07:27.826Z,0
2023-08-27T01:10:28.837Z,0
2023-08-27T01:13:29.873Z,0
2023-08-27T01:16:30.876Z,0
2023-08-27T01:19:31.910Z,0
2023-08-27T01:22:32.932Z,0
2023-08-27T01:25:33.942Z,0
2023-08-27T01:27:18.955Z,0
2023-08-27T01:28:34.991Z,0
2023-08-27T01:31:36.001Z,0
2023-08-27T01:34:37.034Z,0
2023-08-27T01:40:39.081Z,0
2023-08-27T01:43:40.089Z,0
2023-08-27T01:52:43.157Z,0
2023-08-27T01:55:44.172Z,0
2023-08-27T01:57:29.199Z,0
2023-08-27T01:58:45.221Z,0
2023-08-27T02:01:46.228Z,0
2023-08-27T02:07:48.290Z,0
2023-08-27T02:10:49.303Z,0
2023-08-27T02:13:50.321Z,0
2023-08-27T02:16:51.353Z,0
2023-08-27T02:19:52.362Z,0
2023-08-27T02:25:54.407Z,0
2023-08-27T02:27:39.422Z,0
2023-08-27T02:31:56.483Z,0
2023-08-27T02:34:57.509Z,0
2023-08-27T02:37:58.517Z,0
2023-08-27T02:44:00.562Z,0
2023-08-27T02:47:01.584Z,0
2023-08-27T02:50:02.606Z,0
2023-08-27T02:53:03.627Z,0
2023-08-27T02:56:04.644Z,0
2023-08-27T02:57:49.669Z,0
2023-08-27T03:02:06.708Z,0
2023-08-27T03:05:07.738Z,0
2023-08-27T03:20:12.844Z,0
2023-08-27T03:23:13.849Z,0
2023-08-27T03:26:14.875Z,0
2023-08-27T03:27:59.886Z,0
2023-08-27T03:32:16.953Z,0
2023-08-27T03:35:17.965Z,0
2023-08-27T03:38:18.986Z,0
2023-08-27T03:41:19.992Z,0
2023-08-27T03:47:22.047Z,0
2023-08-27T03:50:23.072Z,0
2023-08-27T03:53:24.087Z,1
2023-08-27T03:56:25.129Z,2
2023-08-27T03:58:10.118Z,1
2023-08-27T04:02:27.149Z,2
2023-08-27T04:05:28.184Z,1
2023-08-27T04:08:29.201Z,3
2023-08-27T04:11:30.219Z,6
2023-08-27T04:14:31.248Z,11
2023-08-27T04:17:32.261Z,28
2023-08-27T04:23:34.311Z,26
2023-08-27T04:26:35.340Z,24
2023-08-27T04:28:20.348Z,32
2023-08-27T04:29:36.351Z,46
2023-08-27T04:32:37.372Z,60
2023-08-27T04:35:38.399Z,58
2023-08-27T04:38:39.410Z,83
2023-08-27T04:41:40.450Z,83
2023-08-27T04:44:41.454Z,69
2023-08-27T04:50:43.509Z,47
2023-08-27T04:53:44.525Z,62
2023-08-27T04:56:45.544Z,118
2023-08-27T04:58:30.593Z,125
2023-08-27T04:59:46.572Z,133
2023-08-27T05:02:47.581Z,162
2023-08-27T05:08:49.646Z,253
2023-08-27T05:11:50.661Z,201
2023-08-27T05:14:51.671Z,263
2023-08-27T05:17:52.694Z,460
2023-08-27T05:20:53.721Z,503
2023-08-27T05:23:54.732Z,393
2023-08-27T05:26:55.764Z,315
2023-08-27T05:28:40.809Z,301
2023-08-27T05:29:56.786Z,262
2023-08-27T05:32:57.819Z,248
2023-08-27T05:35:58.855Z,222
2023-08-27T05:38:59.849Z,259
2023-08-27T05:42:00.875Z,231
2023-08-27T05:45:01.904Z,197
2023-08-27T05:48:02.922Z,511
2023-08-27T05:54:04.977Z,721
2023-08-27T05:57:05.986Z,686
2023-08-27T05:58:51.051Z,895
2023-08-27T06:00:07.014Z,950
2023-08-27T06:03:08.064Z,921
2023-08-27T06:06:09.071Z,896
2023-08-27T06:09:10.084Z,878
2023-08-27T06:12:11.123Z,956
2023-08-27T06:15:12.129Z,1039
2023-08-27T06:18:13.142Z,920
2023-08-27T06:21:14.193Z,814
2023-08-27T06:24:15.191Z,1231
2023-08-27T06:29:01.287Z,1283
2023-08-27T06:30:17.430Z,1058
2023-08-27T06:33:18.436Z,1121
2023-08-27T06:39:20.486Z,1324
2023-08-27T06:42:21.488Z,1235
2023-08-27T06:48:23.548Z,955
2023-08-27T06:51:24.574Z,939
2023-08-27T06:54:25.574Z,852
2023-08-27T06:57:26.618Z,786
2023-08-27T06:59:11.520Z,779
2023-08-27T07:00:27.645Z,1493
2023-08-27T07:03:28.646Z,1641
2023-08-27T07:06:29.711Z,1706
2023-08-27T07:09:30.708Z,1524
2023-08-27T07:12:31.719Z,1134
2023-08-27T07:15:32.746Z,1370
2023-08-27T07:18:33.753Z,1352
2023-08-27T07:24:35.808Z,1558
2023-08-27T07:27:36.829Z,1529
2023-08-27T07:29:21.740Z,1193
2023-08-27T07:33:38.884Z,910
2023-08-27T07:36:39.909Z,889
2023-08-27T07:42:41.951Z,827
2023-08-27T07:45:42.976Z,1167
2023-08-27T07:51:45.007Z,1361
2023-08-27T07:54:46.014Z,1555
2023-08-27T07:59:31.967Z,966
2023-08-27T08:00:48.092Z,953
2023-08-27T08:03:49.105Z,942
2023-08-27T08:09:51.140Z,906
2023-08-27T08:12:52.159Z,1094
2023-08-27T08:18:54.204Z,1412
2023-08-27T08:21:55.230Z,1222
2023-08-27T08:27:57.280Z,1534
2023-08-27T08:29:42.243Z,1611
2023-08-27T08:30:58.279Z,1490
2023-08-27T08:37:00.340Z,1435
2023-08-27T08:40:01.331Z,1484
2023-08-27T08:43:02.370Z,1455
2023-08-27T08:46:03.409Z,1655
2023-08-27T08:49:04.412Z,1733
2023-08-27T08:55:06.463Z,1491
2023-08-27T08:58:07.489Z,1609
2023-08-27T08:59:52.437Z,1652
2023-08-27T09:04:09.544Z,1668
2023-08-27T09:07:10.550Z,1600
2023-08-27T09:10:11.549Z,1876
2023-08-27T09:13:12.611Z,1984
2023-08-27T09:16:13.602Z,2277
2023-08-27T09:22:15.658Z,3073
2023-08-27T09:25:16.679Z,3120
2023-08-27T09:30:02.674Z,2625
2023-08-27T09:31:18.730Z,2771
2023-08-27T09:34:19.745Z,2696
2023-08-27T09:37:20.751Z,2485
2023-08-27T09:40:21.805Z,2792
2023-08-27T09:43:22.806Z,2632
2023-08-27T09:49:24.866Z,2716
2023-08-27T09:52:25.857Z,2051
2023-08-27T09:55:26.880Z,2060
2023-08-27T09:58:27.926Z,1960
2023-08-27T10:00:12.930Z,1530
2023-08-27T10:01:28.950Z,1904
2023-08-27T10:04:29.933Z,2536
2023-08-27T10:07:30.987Z,2721
2023-08-27T10:10:32.008Z,3651
2023-08-27T10:13:33.038Z,2971
2023-08-27T10:16:34.052Z,2214
2023-08-27T10:19:35.083Z,5161
2023-08-27T10:25:37.119Z,4423
2023-08-27T10:28:38.128Z,5907
2023-08-27T10:30:23.179Z,7449
2023-08-27T10:34:40.187Z,5317
2023-08-27T10:43:43.256Z,6672
2023-08-27T10:46:44.265Z,6418
2023-08-27T10:52:46.322Z,5834
2023-08-27T10:55:47.332Z,5130
2023-08-27T10:58:48.369Z,5089
2023-08-27T11:00:33.414Z,3339
2023-08-27T11:01:49.383Z,3114
2023-08-27T11:04:50.418Z,3632
2023-08-27T11:10:52.456Z,4098
2023-08-27T11:13:53.451Z,4180
2023-08-27T11:19:55.519Z,4152
2023-08-27T11:22:56.534Z,10329
2023-08-27T11:28:58.588Z,8816
2023-08-27T11:30:43.660Z,6075
2023-08-27T11:31:59.633Z,4971
2023-08-27T11:35:00.623Z,3320
2023-08-27T11:41:02.673Z,2620
2023-08-27T11:47:04.747Z,2823
2023-08-27T11:50:05.737Z,5886
2023-08-27T11:56:07.810Z,8457
2023-08-27T11:59:08.829Z,8557
2023-08-27T12:00:53.890Z,5669
2023-08-27T12:05:10.883Z,3030
2023-08-27T12:08:11.873Z,2924
2023-08-27T12:14:13.959Z,2282
2023-08-27T12:17:14.975Z,1812
2023-08-27T12:20:15.975Z,1486
2023-08-27T12:23:17.025Z,1096
2023-08-27T12:26:18.007Z,1055
2023-08-27T12:29:19.062Z,950
2023-08-27T12:31:04.089Z,931
2023-08-27T12:32:20.275Z,1100
2023-08-27T12:35:21.308Z,1180
2023-08-27T12:44:24.334Z,1179
2023-08-27T12:53:27.391Z,1215
2023-08-27T12:56:28.426Z,1295
2023-08-27T12:59:29.434Z,1106
2023-08-27T13:01:14.356Z,1159
2023-08-27T13:02:30.493Z,1236
2023-08-27T13:08:32.534Z,1031
2023-08-27T13:11:33.555Z,914
2023-08-27T13:20:36.616Z,908
2023-08-27T13:26:38.677Z,1347
2023-08-27T13:29:39.684Z,982
2023-08-27T13:31:24.554Z,738
2023-08-27T13:32:40.688Z,922
2023-08-27T13:35:41.742Z,927
2023-08-27T13:38:42.767Z,854
2023-08-27T13:44:44.799Z,1267
2023-08-27T13:47:45.831Z,1349
2023-08-27T13:53:47.858Z,1691
2023-08-27T13:56:48.889Z,2244
2023-08-27T14:02:50.938Z,1966
2023-08-27T14:05:51.946Z,2029
2023-08-27T14:11:53.987Z,2046
2023-08-27T14:14:54.973Z,2009
2023-08-27T14:20:57.064Z,1979
2023-08-27T14:23:58.090Z,2533
2023-08-27T14:30:00.117Z,2756
2023-08-27T14:31:45.065Z,2444
2023-08-27T14:33:01.146Z,2742
2023-08-27T14:39:03.192Z,2729
2023-08-27T14:45:05.203Z,2593
2023-08-27T14:48:06.257Z,2175
2023-08-27T14:57:09.284Z,1723
2023-08-27T15:00:10.299Z,1608
2023-08-27T15:01:55.267Z,1913
2023-08-27T15:06:12.396Z,1703
2023-08-27T15:15:15.455Z,1471
2023-08-27T15:18:16.435Z,1288
2023-08-27T15:21:17.460Z,1272
2023-08-27T15:24:18.516Z,1343
2023-08-27T15:27:19.541Z,1176
2023-08-27T15:32:05.492Z,1301
2023-08-27T15:33:21.579Z,1948
2023-08-27T15:36:22.598Z,2021
2023-08-27T15:42:24.648Z,1496
2023-08-27T15:45:25.672Z,1521
2023-08-27T15:54:28.692Z,719
2023-08-27T15:57:29.729Z,951
2023-08-27T16:00:30.781Z,1067
2023-08-27T16:02:15.770Z,1001
2023-08-27T16:03:31.805Z,839
2023-08-27T16:12:34.834Z,751
2023-08-27T16:18:36.872Z,615
2023-08-27T16:21:37.928Z,629
2023-08-27T16:24:38.920Z,641
2023-08-27T16:27:39.984Z,550
2023-08-27T16:30:41.004Z,773
2023-08-27T16:32:25.964Z,647
2023-08-27T16:36:43.047Z,666
2023-08-27T16:42:45.095Z,609
2023-08-27T16:45:46.103Z,642
2023-08-27T16:48:47.128Z,554
2023-08-27T16:54:49.128Z,571
2023-08-27T16:57:50.190Z,541
2023-08-27T17:02:36.243Z,466
2023-08-27T17:03:52.233Z,425
2023-08-27T17:06:53.214Z,407
2023-08-27T17:12:55.299Z,429
2023-08-27T17:15:56.326Z,362
2023-08-27T17:18:57.312Z,339
2023-08-27T17:21:58.369Z,299
2023-08-27T17:24:59.387Z,241
2023-08-27T17:31:01.428Z,197
2023-08-27T17:32:46.484Z,179
2023-08-27T17:40:04.494Z,140
2023-08-27T17:43:05.530Z,122
2023-08-27T17:46:06.507Z,97
2023-08-27T17:58:10.633Z,56
2023-08-27T18:01:11.654Z,46
2023-08-27T18:02:56.715Z,35
2023-08-27T18:07:13.724Z,20
2023-08-27T18:10:14.698Z,16
2023-08-27T18:13:15.712Z,13
2023-08-27T18:16:16.732Z,10
2023-08-27T18:19:17.751Z,7
2023-08-27T18:22:18.771Z,6
2023-08-27T18:25:19.849Z,3
2023-08-27T18:28:20.832Z,2
2023-08-27T18:33:06.909Z,0
2023-08-27T18:37:24.003Z,0
2023-08-27T18:43:26.047Z,0
2023-08-27T18:46:27.076Z,0
2023-08-27T18:49:28.039Z,0
2023-08-27T18:52:29.109Z,0
2023-08-27T18:55:30.137Z,0
2023-08-27T18:58:31.118Z,0
2023-08-27T19:01:32.178Z,0
2023-08-27T19:03:17.144Z,0
2023-08-27T19:04:33.182Z,0
2023-08-27T19:07:34.208Z,0
2023-08-27T19:10:35.276Z,0
2023-08-27T19:13:36.297Z,0
2023-08-27T19:19:38.331Z,0
2023-08-27T19:22:39.351Z,0
2023-08-27T19:28:41.401Z,0
2023-08-27T19:31:42.415Z,0
2023-08-27T19:33:27.427Z,0
2023-08-27T19:37:44.489Z,0
2023-08-27T19:40:45.460Z,0
2023-08-27T19:46:47.548Z,0
2023-08-27T19:49:48.524Z,0
2023-08-27T19:55:50.621Z,0
2023-08-27T19:58:51.630Z,0
2023-08-27T20:03:37.674Z,0
2023-08-27T20:04:53.699Z,0
2023-08-27T20:07:54.662Z,0
2023-08-27T20:10:55.700Z,0
2023-08-27T20:13:56.712Z,0
2023-08-27T20:16:57.730Z,0
2023-08-27T20:22:59.771Z,0
2023-08-27T20:26:00.850Z,0
2023-08-27T20:32:02.895Z,0
2023-08-27T20:33:47.892Z,0
2023-08-27T20:35:03.926Z,0
2023-08-27T20:38:04.897Z,0
2023-08-27T20:41:05.938Z,0
2023-08-27T20:44:07.004Z,0
2023-08-27T20:47:08.019Z,0
2023-08-27T20:50:09.034Z,0
2023-08-27T20:53:10.053Z,0
2023-08-27T20:59:12.114Z,0
2023-08-27T21:02:13.124Z,0
2023-08-27T21:03:58.092Z,0
2023-08-27T21:08:15.197Z,0
2023-08-27T21:11:16.216Z,0
2023-08-27T21:14:17.172Z,0
2023-08-27T21:17:18.247Z,0
2023-08-27T21:20:19.229Z,0
2023-08-27T21:26:21.266Z,0
2023-08-27T21:29:22.340Z,0
2023-08-27T21:32:23.307Z,0
2023-08-27T21:34:08.318Z,0
2023-08-27T21:35:24.392Z,0
2023-08-27T21:38:25.417Z,0
2023-08-27T21:44:27.406Z,0
2023-08-27T21:47:28.482Z,0
2023-08-27T21:50:29.462Z,0
2023-08-27T21:53:30.531Z,0
2023-08-27T21:56:31.504Z,0
2023-08-27T21:59:32.515Z,0
2023-08-27T22:02:33.538Z,0
2023-08-27T22:04:18.557Z,0
2023-08-27T22:05:34.581Z,0
2023-08-27T22:08:35.604Z,0
2023-08-27T22:11:36.670Z,0
2023-08-27T22:14:37.692Z,0
2023-08-27T22:17:38.667Z,0
2023-08-27T22:20:39.732Z,0
2023-08-27T22:23:40.884Z,0
2023-08-27T22:26:58.111Z,0
2023-08-27T22:29:59.180Z,0
2023-08-27T22:33:00.157Z,0
2023-08-27T22:34:28.826Z,0
2023-08-27T22:36:01.171Z,0
2023-08-27T22:39:02.203Z,0
2023-08-27T22:42:03.223Z,0
2023-08-27T22:48:05.311Z,0
2023-08-27T22:51:06.332Z,0
2023-08-27T22:57:08.373Z,0
2023-08-27T23:00:09.360Z,0
2023-08-27T23:03:10.391Z,0
2023-08-27T23:04:39.025Z,0
2023-08-27T23:06:11.412Z,0
2023-08-27T23:09:12.417Z,0
2023-08-27T23:15:14.515Z,0
2023-08-27T23:18:15.526Z,0
2023-08-27T23:21:16.505Z,0
2023-08-27T23:24:17.577Z,0
2023-08-27T23:27:18.556Z,0
2023-08-27T23:30:19.570Z,0
2023-08-27T23:33:20.640Z,0
2023-08-27T23:34:49.300Z,0
2023-08-27T23:36:21.664Z,0
2023-08-27T23:42:23.659Z,0
2023-08-27T23:45:24.683Z,0
2023-08-27T23:51:26.768Z,0
2023-08-27T23:54:27.798Z,0
